Aérodrome :
LOGIN :

S'inscrire | Disclaimer

   EN    FR    IT 

 










Légende :    VFR   VFR Marginal   IFR   IFR Intensif   IFR Très Intensif
Visi : 
Plafond : 
>= 8 km
>= 3000ft
5 à 8 km
1000 à 3000 ft
1500m à 5 km
500 à 1000 ft
800 à 1500m
200 à 500 ft
< 800m
< 200 ft
Symboles :   Orages  Brouillard  Fortes neiges  Fortes précipitations  Vent > 20 kt
SIGMETs :   Divers  Orages  Givrage  Turbulence  Onde Orograph.  Cendres Volcan.







- Altitude de l'aérodrome : 1367 ft
- Code IATA : FDH


EDNY - Friedrichshafen

DERNIER METAR :
  • 250950Z 26011KT 220V300 CAVOK 20/10 Q1015

METARs EXPIRÉS :
  • 250920Z 26012KT 230V290 CAVOK 20/10 Q1015
  • 250850Z 26010KT 230V300 CAVOK 19/10 Q1015
  • 250820Z 24006KT CAVOK 18/10 Q1015
  • 250750Z 24003KT 200V270 CAVOK 18/11 Q1015
  • 250720Z 17003KT 110V220 CAVOK 17/11 Q1015

TAF TAF EDNY
Valide du 25 à 06h jusqu'au 26 à 06h UTC


250500Z 2506/2606 22005KT CAVOK
BECMG 2507/2510 25015G25KT
TEMPO 2510/2517 28020G35KT
BECMG 2518/2521 24005KT
PROB30
TEMPO 2600/2606 RA BKN014
Pas de NOTAMs connus pour ce terrain.



MET'MAP, la Météo Aéronautique d'un coup d'oeil ! - Copyright ORBIFLY Décembre 2007 - Disclaimer

ORBIFLY MET'MAP TEAM :

Programmation & Développement : Alexandra Zaïnal
Conception & Développement : Baudouin d'Aumeries
Co-Programmation & Développement : Marc-Olivier Méhu
Soutien technique & logistique : Manuel Goepfert

Contact : metmap@orbifly.com




SOURCES & CREDITS :

   NOAA